Terminal Aerodrome Forecast
Issued by NWS Corpus Christi, TX

Home | Current Version | Previous Version | Text Only | Print | Product List | Glossary On
Versions: 1 2 3 4 5 6 7 8 9 10 11 12 13 14 15 16 17 18 19
935
FTUS44 KCRP 291132
TAFVCT
TAF
KVCT 291132Z 2912/3012 VRB03KT P6SM SCT020
     FM291400 12008G15KT P6SM SCT025 BKN150
      TEMPO 2915/2917 BKN025
     FM292000 13014G18KT P6SM SCT040 BKN250
     FM300300 14012KT P6SM BKN020
      TEMPO 3004/3006 SCT020
     FM300900 11004KT 5SM BR BKN020=

USA.gov is the U.S. government's official web portal to all federal, state and local government web resources and services.